Whitingham, VT (05361)

2:26 AM EST on December 18, 2014 (GMT -0500)
Wastewater Treatment Plant | Change Station
CLOSE
Current Station
Personal Weather Station
Location: Wilmington, VT
Elevation: 1500 ft
Nearby Weather Stations

Elev 1500 ft 42.87 °N, 72.88 °W | Updated 45 seconds ago

Overcast
Overcast
30.8 °F
Feels Like 27 °F
N
4.0
Wind Variable Wind from West
Gusts 13.0 mph

Today
High -- | Low -- °F
--% Chance of Precip.
Yesterday
High -- | Low -- °F
Precip. -- in
7:17 AM 4:19 PM
Waning Crescent, 16% visible
Pressure 29.79 in
Visibility 2.5 miles
Clouds Scattered Clouds 1900 ft
Mostly Cloudy 2500 ft
Overcast 4300 ft
Windchill 27 °F
Dew Point 29 °F
Humidity 93%
Rainfall 0.00 in
Snow Depth Not available.
UV 0 out of 12
Pollen .10 out of 12
Air Quality Not available.
Flu Activity Not available.
SPECI KAQW 180716Z AUTO 27009KT 2 1/2SM -SN SCT019 BKN025 OVC043 01/M02 A2979 RMK AO2 SNB0658 P0000 T00111017

More Conditions Fewer Conditions

Pressure 29.79 in
Visibility 2.5 miles
Clouds Scattered Clouds 1900 ft
Mostly Cloudy 2500 ft
Overcast 4300 ft
Windchill 27 °F
Dew Point 29 °F
Humidity 93%
Rainfall 0.00 in
Snow Depth Not available.
UV 0 out of 12
Pollen .10 out of 12
Air Quality Not available.
Flu Activity Not available.
SPECI KAQW 180716Z AUTO 27009KT 2 1/2SM -SN SCT019 BKN025 OVC043 01/M02 A2979 RMK AO2 SNB0658 P0000 T00111017

More Conditions Fewer Conditions

10-Day Weather Forecast

Almanac

Astronomy

Dec. 18, 2014 Rise Set
Actual Time
Civil Twilight
Nautical Twilight
Astronomical Twilight
Moon
Length of Visible Light
Length of Day
Tomorrow will be .
, % of the Moon is Illuminated

Today's Extremes

State Highs State Lows

Community

WunderPhotos

Upload Photos

1,778,900 photos uploaded!

WunderBlogs® & News

Nearby

Air Quality

  Air Quality AQ Index Pollutant
Not available.

Snow Depth

Station Depth Elevation

Earthquake Activity

City Distance Mag. Time & Date
Minimum magnitude displayed is 2.5.

Coastal Water Temperatures

Place Temperature

Nearby Weather Stations